TFFR/PTP METAR and TAF weather

Enter ICAO airport designator
Station Type Date Time Source
TFFR METAR 2021/09/25 02:30 UTC NOAA

TFFR 250230Z AUTO 11004KT 9999 FEW023 27/24 Q1015


Station Type Date Time Source
TFFR Decoded METAR 2021/09/25 02:30 UTC NOAA

Le Raizet, Guadeloupe, Guadeloupe (TFFR) 16-16N 061-31W 11M
Sep 24, 2021 - 10:30 PM EDT / 2021.09.25 0230 UTC
Wind: from the ESE (110 degrees) at 5 MPH (4 KT):0
Visibility: greater than 7 mile(s):0
Sky conditions: mostly clear
Temperature: 80 F (27 C)
Dew Point: 75 F (24 C)
Relative Humidity: 83%
Pressure (altimeter): 29.97 in. Hg (1015 hPa)
ob: TFFR 250230Z AUTO 11004KT 9999 FEW023 27/24 Q1015
cycle: 2

Station Type Date Time Source
TFFR TAF 2021/09/24 22:47 UTC NOAA

TAF TFFR 242239Z 2422/2518 CNL

Example: see airport list